Time;durP1;ratioP1;P1;durP2;ratioP2;P2;SDS_P1;SDS_P2;PMS_P1;PMS_P2;Temp;Humidity;BMP_temperature;BMP_pressure;BME280_temperature;BME280_humidity;BME280_pressure;Samples;Min_cycle;Max_cycle;Signal;HPM_P1;HPM_P2
2022/01/31 00:00:19;;;;;;;;;11.00;10.67;;;;;8.01;69.54;101833.16;5001865;28;45504;-75
2022/01/31 00:02:46;;;;;;;;;9.00;9.00;;;;;8.02;69.62;101829.56;4984094;28;48744;-75
2022/01/31 00:05:12;;;;;;;;;10.33;10.33;;;;;7.93;69.36;101818.78;5001690;28;45345;-75
2022/01/31 00:07:38;;;;;;;;;11.00;9.67;;;;;7.87;68.90;101816.66;5001549;28;45329;-75
2022/01/31 00:10:08;;;;;;;;;10.67;9.67;;;;;7.87;68.13;101840.47;5001388;28;45318;-75
2022/01/31 00:12:45;;;;;;;;;7.00;7.00;;;;;7.74;68.20;101802.78;5001421;28;45366;-76
2022/01/31 00:15:11;;;;;;;;;11.67;11.67;;;;;7.67;69.26;101792.69;5001548;28;45351;-74
2022/01/31 00:17:36;;;;;;;;;11.00;9.67;;;;;7.68;68.51;101806.78;4979895;28;45404;-75
2022/01/31 00:20:03;;;;;;;;;8.00;8.00;;;;;7.63;69.07;101793.94;4964336;28;46310;-75
2022/01/31 00:22:28;;;;;;;;;10.00;9.33;;;;;7.65;68.84;101804.38;4964351;28;48203;-75
2022/01/31 00:24:53;;;;;;;;;7.67;7.67;;;;;7.63;69.06;101803.69;4981445;28;45334;-75
2022/01/31 00:27:19;;;;;;;;;10.67;8.00;;;;;7.58;68.65;101786.38;4981978;28;45254;-75
2022/01/31 00:29:44;;;;;;;;;8.00;6.67;;;;;7.65;69.34;101778.78;4981790;28;45568;-75
2022/01/31 00:32:09;;;;;;;;;11.67;10.00;;;;;7.65;69.55;101768.19;4981595;28;46132;-75
2022/01/31 00:34:35;;;;;;;;;9.67;8.00;;;;;7.68;69.22;101756.50;4963912;28;45363;-75
2022/01/31 00:37:00;;;;;;;;;7.67;7.67;;;;;7.65;69.42;101754.09;4996817;28;45346;-76
2022/01/31 00:39:25;;;;;;;;;12.00;9.00;;;;;7.55;69.20;101739.00;4981220;28;45350;-74
2022/01/31 00:41:51;;;;;;;;;11.33;8.00;;;;;7.58;69.46;101732.63;4981628;28;45452;-75
2022/01/31 00:46:49;;;;;;;;;7.00;6.33;;;;;7.50;69.16;101753.59;4980204;28;45562;-75
2022/01/31 00:50:06;;;;;;;;;9.00;9.00;;;;;7.60;69.12;101762.44;4963882;28;46044;-75
2022/01/31 00:52:03;;;;;;;;;7.33;7.33;;;;;7.60;69.63;101762.44;4968007;28;46654;-75
2022/01/31 00:54:30;;;;;;;;;7.67;7.67;;;;;7.61;69.43;101761.47;4963331;28;45949;-74
2022/01/31 00:56:55;;;;;;;;;11.00;9.00;;;;;7.63;69.21;101774.59;4981283;28;45389;-75
2022/01/31 00:59:21;;;;;;;;;9.00;7.67;;;;;7.64;69.18;101773.59;4981100;28;45298;-75
2022/01/31 01:01:47;;;;;;;;;8.00;7.00;;;;;7.58;69.60;101762.56;4981173;28;45967;-75
2022/01/31 01:04:13;;;;;;;;;8.67;7.67;;;;;7.67;69.51;101754.81;4981287;28;45339;-75
2022/01/31 01:06:39;;;;;;;;;21.00;19.33;;;;;7.61;69.56;101735.03;4996262;28;45399;-75
2022/01/31 01:09:04;;;;;;;;;8.00;7.00;;;;;7.68;69.42;101732.69;4980777;28;45262;-74
2022/01/31 01:11:30;;;;;;;;;10.00;8.67;;;;;7.70;70.05;101723.63;4980706;28;45346;-75
2022/01/31 01:13:55;;;;;;;;;9.00;7.00;;;;;7.60;69.94;101717.44;4981012;28;45257;-75
2022/01/31 01:16:21;;;;;;;;;7.33;6.67;;;;;7.62;70.13;101726.09;4981213;28;45207;-75
2022/01/31 01:18:46;;;;;;;;;9.33;6.67;;;;;7.58;69.59;101712.28;4994048;28;45311;-75
2022/01/31 01:21:11;;;;;;;;;8.33;7.00;;;;;7.62;69.60;101707.59;5000568;28;46296;-75
2022/01/31 01:23:37;;;;;;;;;11.00;8.67;;;;;7.62;69.79;101685.56;4982465;28;46000;-74
2022/01/31 01:26:03;;;;;;;;;8.33;8.33;;;;;7.64;69.78;101700.38;5000468;28;45241;-75
2022/01/31 01:28:28;;;;;;;;;9.00;8.67;;;;;7.68;70.25;101696.47;5000471;28;45259;-75
2022/01/31 01:30:57;;;;;;;;;7.67;7.00;;;;;7.67;70.05;101681.56;5000370;28;45923;-74
2022/01/31 01:33:23;;;;;;;;;9.67;6.33;;;;;7.66;70.52;101677.25;5005397;28;45454;-75
2022/01/31 01:35:51;;;;;;;;;10.00;6.33;;;;;7.72;69.94;101669.75;5020305;28;45384;-75
2022/01/31 01:38:19;;;;;;;;;10.33;8.33;;;;;7.70;69.96;101641.59;5019962;28;45281;-74
2022/01/31 01:40:46;;;;;;;;;6.33;4.67;;;;;7.68;70.40;101640.91;5019848;28;45257;-75
2022/01/31 01:43:14;;;;;;;;;5.00;5.00;;;;;7.65;69.69;101635.88;5020048;28;45402;-75
2022/01/31 01:45:42;;;;;;;;;6.33;6.33;;;;;7.62;70.18;101628.22;5002391;28;45285;-75
2022/01/31 01:48:09;;;;;;;;;7.67;5.00;;;;;7.68;70.06;101640.06;5019822;28;45390;-74
2022/01/31 01:50:40;;;;;;;;;5.67;4.67;;;;;7.61;70.27;101644.22;5019841;28;45377;-75
2022/01/31 01:53:06;;;;;;;;;5.00;5.00;;;;;7.56;70.18;101626.94;5019600;28;45224;-75
2022/01/31 01:55:32;;;;;;;;;7.67;6.00;;;;;7.55;70.34;101627.88;5019962;28;45373;-75
2022/01/31 01:57:58;;;;;;;;;4.67;4.00;;;;;7.62;70.58;101638.78;5001532;28;46104;-75
2022/01/31 02:00:26;;;;;;;;;2.00;2.00;;;;;7.58;70.30;101616.22;5019739;28;45211;-75
2022/01/31 02:02:53;;;;;;;;;2.00;2.00;;;;;7.59;70.25;101617.88;5019786;28;45249;-75
2022/01/31 02:05:18;;;;;;;;;4.67;4.67;;;;;7.49;70.26;101611.72;5001891;28;45511;-75
2022/01/31 02:07:45;;;;;;;;;5.33;4.00;;;;;7.59;70.84;101628.47;5019479;28;45483;-75
2022/01/31 02:10:11;;;;;;;;;6.00;4.00;;;;;7.54;70.79;101614.81;5019569;28;45700;-74
2022/01/31 02:12:41;;;;;;;;;4.00;4.00;;;;;7.57;70.68;101612.72;5019468;28;45301;-75
2022/01/31 02:15:11;;;;;;;;;7.33;5.33;;;;;7.63;70.83;101610.53;5001932;28;45398;-75
2022/01/31 02:17:38;;;;;;;;;5.67;4.00;;;;;7.53;70.94;101595.47;5015564;28;45489;-75
2022/01/31 02:20:05;;;;;;;;;6.00;4.00;;;;;7.65;71.05;101603.28;4999734;28;45276;-75
2022/01/31 02:22:30;;;;;;;;;6.33;4.00;;;;;7.60;71.07;101593.09;4999478;28;45374;-74
2022/01/31 02:24:56;;;;;;;;;5.67;3.33;;;;;7.67;71.58;101583.66;4999554;28;45351;-75
2022/01/31 02:27:30;;;;;;;;;4.00;4.00;;;;;7.67;71.45;101582.84;4999719;28;45324;-75
2022/01/31 02:29:56;;;;;;;;;6.33;6.33;;;;;7.68;71.44;101574.75;4999621;28;45326;-75
2022/01/31 02:32:22;;;;;;;;;8.33;5.33;;;;;7.63;71.74;101566.38;4999451;28;45288;-75
2022/01/31 02:34:51;;;;;;;;;4.00;4.00;;;;;7.62;71.29;101558.56;4981928;28;45328;-75
2022/01/31 02:37:17;;;;;;;;;5.67;4.00;;;;;7.60;71.53;101540.19;4999505;28;45450;-75
2022/01/31 02:39:43;;;;;;;;;5.00;4.00;;;;;7.64;71.51;101540.75;4999170;28;45261;-75
2022/01/31 02:42:08;;;;;;;;;5.33;5.00;;;;;7.61;71.69;101528.66;4999431;28;45212;-75
2022/01/31 02:44:34;;;;;;;;;5.00;4.00;;;;;7.59;72.00;101522.66;4999616;28;45258;-75
2022/01/31 02:46:59;;;;;;;;;4.00;4.00;;;;;7.66;71.66;101534.34;4999442;28;45199;-75
2022/01/31 02:49:32;;;;;;;;;1.00;1.00;;;;;7.62;72.01;101524.19;4999366;28;45389;-75
2022/01/31 02:52:01;;;;;;;;;4.00;3.33;;;;;7.64;72.61;101520.44;4981597;28;45246;-75
2022/01/31 02:54:27;;;;;;;;;5.00;4.00;;;;;7.67;73.08;101514.84;4999199;28;45322;-74
2022/01/31 02:56:53;;;;;;;;;3.00;3.00;;;;;7.65;73.62;101519.47;4999174;28;45429;-74
2022/01/31 02:59:19;;;;;;;;;5.00;5.00;;;;;7.63;73.67;101510.81;4999167;28;45682;-74
2022/01/31 03:01:44;;;;;;;;;5.67;3.00;;;;;7.63;73.65;101502.06;4999429;28;45327;-74
2022/01/31 03:04:10;;;;;;;;;8.00;7.33;;;;;7.68;74.13;101503.31;4981561;28;45343;-75
2022/01/31 03:06:41;;;;;;;;;5.67;4.00;;;;;7.67;74.24;101501.63;4999211;28;45350;-75
2022/01/31 03:09:06;;;;;;;;;5.67;4.33;;;;;7.58;74.01;101487.41;4999762;28;46483;-75
2022/01/31 03:11:32;;;;;;;;;5.33;4.67;;;;;7.67;74.64;101500.81;4984420;28;45325;-75
2022/01/31 03:13:57;;;;;;;;;4.00;4.00;;;;;7.65;75.02;101495.66;5002684;28;45622;-75
2022/01/31 03:16:23;;;;;;;;;5.67;5.00;;;;;7.63;74.91;101507.34;5002499;28;45630;-75
2022/01/31 03:18:48;;;;;;;;;6.00;4.00;;;;;7.64;74.86;101503.72;5002261;28;45478;-75
2022/01/31 03:21:14;;;;;;;;;4.00;4.00;;;;;7.57;75.27;101503.41;4984738;28;45278;-75
2022/01/31 03:23:40;;;;;;;;;1.00;1.00;;;;;7.66;76.02;101510.53;5002396;28;45332;-75
2022/01/31 03:26:05;;;;;;;;;1.33;1.33;;;;;7.64;75.43;101483.41;5002102;28;45555;-75
2022/01/31 03:28:31;;;;;;;;;4.33;4.00;;;;;7.61;75.98;101478.38;4984281;28;48355;-75
2022/01/31 03:30:56;;;;;;;;;3.00;1.00;;;;;7.46;75.72;101451.47;5002364;28;45257;-75
2022/01/31 03:33:22;;;;;;;;;2.00;2.00;;;;;7.68;75.91;101495.38;5002051;28;45174;-75
2022/01/31 03:35:47;;;;;;;;;7.67;5.00;;;;;7.65;76.02;101477.13;4984564;28;46126;-75
2022/01/31 03:38:12;;;;;;;;;3.00;2.33;;;;;7.62;75.89;101460.69;5002038;28;45558;-75
2022/01/31 03:40:38;;;;;;;;;4.33;3.33;;;;;7.68;76.02;101479.50;5002092;28;45294;-75
2022/01/31 03:43:03;;;;;;;;;3.67;3.67;;;;;7.67;76.46;101477.00;4984518;28;45160;-74
2022/01/31 03:45:33;;;;;;;;;4.00;4.00;;;;;7.69;76.85;101475.88;5002010;28;45167;-75
2022/01/31 03:48:00;;;;;;;;;3.00;3.00;;;;;7.68;76.62;101453.03;5002136;28;45721;-75
2022/01/31 03:50:26;;;;;;;;;2.00;2.00;;;;;7.69;77.05;101443.28;5002021;28;45404;-75
2022/01/31 03:52:53;;;;;;;;;3.33;3.33;;;;;7.74;76.45;101442.88;5000293;28;45460;-75
2022/01/31 03:55:19;;;;;;;;;5.33;4.33;;;;;7.82;77.46;101450.97;4984059;28;45487;-75
2022/01/31 03:57:44;;;;;;;;;1.00;0.67;;;;;7.85;77.66;101432.16;5001935;28;46410;-74
2022/01/31 04:00:12;;;;;;;;;1.00;1.00;;;;;7.78;78.35;101404.59;5001881;28;45351;-76
2022/01/31 04:02:37;;;;;;;;;1.67;1.67;;;;;7.94;78.98;101441.09;4984127;28;45418;-75
2022/01/31 04:05:03;;;;;;;;;2.00;2.00;;;;;7.93;79.31;101434.94;5001729;28;45539;-75
2022/01/31 04:07:28;;;;;;;;;2.00;1.00;;;;;7.95;80.31;101446.25;4983878;28;48449;-76
2022/01/31 04:09:54;;;;;;;;;2.00;2.00;;;;;7.98;80.57;101442.47;5001460;28;45452;-75
2022/01/31 04:12:19;;;;;;;;;4.00;1.33;;;;;8.02;81.90;101450.97;5001830;28;45230;-75
2022/01/31 04:14:45;;;;;;;;;1.33;1.00;;;;;8.04;82.22;101462.25;5001706;28;45368;-75
2022/01/31 04:17:11;;;;;;;;;1.00;1.00;;;;;7.99;81.04;101459.19;5001141;28;46068;-76
2022/01/31 04:19:38;;;;;;;;;2.00;1.00;;;;;8.09;81.89;101460.03;4998811;28;45369;-75
2022/01/31 04:22:07;;;;;;;;;2.67;1.67;;;;;8.03;82.84;101450.00;5001584;28;45481;-76
2022/01/31 04:24:34;;;;;;;;;5.00;2.33;;;;;8.11;81.83;101455.41;5001178;28;45525;-76
2022/01/31 04:27:05;;;;;;;;;2.00;2.00;;;;;8.07;83.23;101457.53;5001273;28;45352;-75
2022/01/31 04:29:37;;;;;;;;;2.00;2.00;;;;;8.15;83.28;101448.03;5001397;28;45398;-76
2022/01/31 04:32:04;;;;;;;;;1.00;1.00;;;;;8.02;83.21;101438.56;5001451;28;45221;-75
2022/01/31 04:34:31;;;;;;;;;1.00;1.00;;;;;8.09;83.91;101468.78;5001080;28;45421;-76
2022/01/31 04:36:59;;;;;;;;;2.00;2.00;;;;;8.06;84.28;101461.13;4993188;28;45937;-75
2022/01/31 04:39:27;;;;;;;;;0.67;0.67;;;;;8.15;84.21;101469.22;5000973;28;45342;-76
2022/01/31 04:41:52;;;;;;;;;1.67;1.67;;;;;8.07;83.43;101467.25;4983474;28;45255;-75
2022/01/31 04:44:18;;;;;;;;;2.00;2.00;;;;;8.09;83.23;101463.50;4983297;28;45255;-76
2022/01/31 04:46:49;;;;;;;;;1.00;1.00;;;;;8.19;83.15;101467.97;5001082;28;45244;-75
2022/01/31 04:49:15;;;;;;;;;2.33;2.00;;;;;8.10;83.10;101443.16;4983453;28;45434;-75
2022/01/31 04:51:40;;;;;;;;;2.00;2.00;;;;;8.11;83.50;101426.28;4999911;28;45197;-76
2022/01/31 04:54:06;;;;;;;;;3.67;2.67;;;;;8.16;83.44;101439.94;5000644;28;45563;-75
2022/01/31 04:56:31;;;;;;;;;2.00;2.00;;;;;8.15;82.88;101425.03;4983220;28;47042;-76
2022/01/31 04:58:56;;;;;;;;;2.33;2.33;;;;;8.18;83.02;101434.50;5001008;28;45268;-75
2022/01/31 05:01:23;;;;;;;;;3.00;2.00;;;;;8.19;83.26;101437.03;5000997;28;45299;-76
2022/01/31 05:03:49;;;;;;;;;3.00;2.67;;;;;8.09;83.81;101422.97;5000968;28;45434;-75
2022/01/31 05:06:17;;;;;;;;;3.00;2.00;;;;;8.07;83.35;101424.91;4983107;28;47385;-76
2022/01/31 05:08:43;;;;;;;;;2.00;2.00;;;;;8.03;83.61;101428.81;5000756;28;45357;-76
2022/01/31 05:11:10;;;;;;;;;1.67;1.67;;;;;8.07;84.07;101449.56;4982987;28;45353;-76
2022/01/31 05:13:39;;;;;;;;;2.00;2.00;;;;;7.92;84.06;101433.28;5000636;28;45334;-76
2022/01/31 05:16:05;;;;;;;;;0.00;0.00;;;;;7.98;84.38;101445.13;4982941;28;47495;-76
2022/01/31 05:18:31;;;;;;;;;3.00;2.67;;;;;8.04;84.39;101480.78;4997372;28;45399;-77
2022/01/31 05:20:56;;;;;;;;;3.33;3.00;;;;;8.05;84.28;101469.22;5000670;28;45824;-75
2022/01/31 05:23:22;;;;;;;;;3.00;3.00;;;;;8.01;84.34;101444.00;5000300;28;45455;-75
2022/01/31 05:25:47;;;;;;;;;2.00;2.00;;;;;8.06;83.25;101439.94;5000392;28;46315;-76
2022/01/31 05:28:12;;;;;;;;;4.00;2.00;;;;;8.00;83.67;101434.38;5000481;28;45311;-75
2022/01/31 05:30:38;;;;;;;;;2.33;2.33;;;;;7.99;83.15;101446.78;5000637;28;45302;-75
2022/01/31 05:33:03;;;;;;;;;4.00;1.33;;;;;8.00;82.73;101467.00;4981723;28;46967;-75
2022/01/31 05:35:29;;;;;;;;;1.67;1.67;;;;;8.00;82.71;101453.75;5000383;28;46351;-75
2022/01/31 05:37:54;;;;;;;;;3.00;3.00;;;;;7.98;83.01;101468.09;5000217;28;45373;-75
2022/01/31 05:40:20;;;;;;;;;3.00;2.67;;;;;7.91;82.94;101449.28;5000418;28;45351;-75
2022/01/31 05:42:45;;;;;;;;;2.67;2.67;;;;;7.95;82.42;101461.28;5000273;28;45439;-75
2022/01/31 05:45:10;;;;;;;;;3.00;3.00;;;;;7.92;81.42;101472.97;4982370;28;48171;-75
2022/01/31 05:47:36;;;;;;;;;2.00;2.00;;;;;7.93;81.72;101476.47;4982577;28;45239;-75
2022/01/31 05:50:03;;;;;;;;;3.67;1.67;;;;;7.94;80.71;101460.44;4982676;28;45187;-75
2022/01/31 05:52:29;;;;;;;;;1.00;1.00;;;;;7.95;79.81;101479.81;4999747;28;45485;-76
2022/01/31 05:54:54;;;;;;;;;1.33;1.33;;;;;7.90;79.19;101468.81;5000045;28;45287;-76
2022/01/31 05:57:20;;;;;;;;;4.33;2.67;;;;;7.91;79.01;101487.19;4982299;28;46005;-75
2022/01/31 05:59:45;;;;;;;;;2.00;2.00;;;;;7.83;77.66;101484.38;4991689;28;45234;-76
2022/01/31 06:02:10;;;;;;;;;0.00;0.00;;;;;7.70;77.67;101466.97;5015407;28;47122;-75
2022/01/31 06:04:36;;;;;;;;;4.67;2.00;;;;;7.75;77.50;101445.38;4979567;28;47789;-75
2022/01/31 06:07:02;;;;;;;;;1.00;1.00;;;;;7.78;76.73;101479.50;5014205;28;45315;-76
2022/01/31 06:09:30;;;;;;;;;3.00;2.00;;;;;7.77;76.94;101483.13;5017929;28;45332;-75
2022/01/31 06:11:56;;;;;;;;;1.67;1.67;;;;;7.76;77.41;101485.91;5001781;28;46166;-76
2022/01/31 06:14:21;;;;;;;;;1.00;1.00;;;;;7.74;76.83;101483.41;5019478;28;46078;-75
2022/01/31 06:16:47;;;;;;;;;2.00;1.00;;;;;7.78;76.26;101487.44;5001629;28;45199;-76
2022/01/31 06:19:13;;;;;;;;;3.00;2.00;;;;;7.74;75.93;101483.41;4999644;28;45286;-76
2022/01/31 06:21:38;;;;;;;;;3.00;3.00;;;;;7.72;75.97;101489.81;4999850;28;45221;-76
2022/01/31 06:24:09;;;;;;;;;3.00;3.00;;;;;7.67;76.17;101488.41;4981651;28;46966;-76
2022/01/31 06:26:35;;;;;;;;;1.00;0.00;;;;;7.58;76.45;101484.75;4981951;28;45412;-78
2022/01/31 06:29:01;;;;;;;;;3.00;3.00;;;;;7.70;76.27;101498.72;5000419;28;45290;-77
2022/01/31 06:31:27;;;;;;;;;5.00;4.00;;;;;7.61;76.25;101488.13;4981550;28;46101;-75
2022/01/31 06:33:53;;;;;;;;;5.00;3.00;;;;;7.66;76.35;101494.66;4981455;28;48285;-75
2022/01/31 06:36:18;;;;;;;;;2.00;2.00;;;;;7.65;75.65;101485.06;4999143;28;45310;-75
2022/01/31 06:38:45;;;;;;;;;1.33;1.33;;;;;7.62;75.13;101485.34;4998334;28;45781;-76
2022/01/31 06:41:11;;;;;;;;;2.00;2.00;;;;;7.65;75.20;101487.72;4999525;28;45486;-75
2022/01/31 06:43:37;;;;;;;;;1.00;1.00;;;;;7.60;74.60;101484.63;5001367;28;45402;-76
2022/01/31 06:46:02;;;;;;;;;4.00;2.00;;;;;7.55;74.28;101494.78;5003711;28;45308;-76
2022/01/31 06:48:28;;;;;;;;;1.67;1.67;;;;;7.47;74.33;101491.97;5018604;28;45656;-77
2022/01/31 06:50:53;;;;;;;;;3.00;3.00;;;;;7.51;74.58;101498.69;4985297;28;45921;-77
2022/01/31 06:53:25;;;;;;;;;3.67;3.67;;;;;7.49;73.96;101490.03;4984437;28;47605;-75
2022/01/31 06:55:51;;;;;;;;;2.00;2.00;;;;;7.41;72.36;101493.34;5002896;28;45386;-75
2022/01/31 06:58:16;;;;;;;;;3.33;2.67;;;;;7.40;72.67;101505.75;5002454;28;45380;-75
2022/01/31 07:00:42;;;;;;;;;3.00;3.00;;;;;7.47;73.46;101513.13;5003295;28;45323;-77
2022/01/31 07:03:10;;;;;;;;;2.00;1.67;;;;;7.40;72.40;101519.00;4984735;28;47293;-76
2022/01/31 07:05:36;;;;;;;;;3.00;3.00;;;;;7.40;72.48;101510.22;5002414;28;45354;-77
2022/01/31 07:08:02;;;;;;;;;4.00;2.33;;;;;7.37;72.43;101506.03;5004010;28;45442;-77
2022/01/31 07:10:28;;;;;;;;;2.00;2.00;;;;;7.36;72.59;101509.63;5004268;28;45346;-77
2022/01/31 07:12:54;;;;;;;;;1.33;1.00;;;;;7.30;71.94;101503.06;5004065;28;45205;-77
2022/01/31 07:15:20;;;;;;;;;1.67;1.67;;;;;7.34;71.86;101516.88;5007351;28;45355;-77
2022/01/31 07:17:46;;;;;;;;;0.67;0.67;;;;;7.29;72.61;101511.97;4989973;28;45453;-75
2022/01/31 07:20:21;;;;;;;;;1.00;1.00;;;;;7.36;72.83;101536.06;4986165;28;45559;-75
2022/01/31 07:22:53;;;;;;;;;4.00;2.00;;;;;7.25;72.50;101530.88;5004325;28;45918;-74
2022/01/31 07:25:34;;;;;;;;;30.67;27.33;;;;;7.27;72.54;101532.41;5022068;28;45297;-75
2022/01/31 07:28:01;;;;;;;;;3.00;3.00;;;;;7.22;73.12;101532.00;5022898;28;45374;-78
2022/01/31 07:30:27;;;;;;;;;1.00;1.00;;;;;7.18;72.77;101518.19;4999923;28;47338;-78
2022/01/31 07:32:52;;;;;;;;;2.00;2.00;;;;;7.18;72.80;101514.69;5003214;28;46934;-77
2022/01/31 07:35:18;;;;;;;;;2.00;2.00;;;;;7.24;72.44;101526.56;5021798;28;45361;-78
2022/01/31 07:37:43;;;;;;;;;1.33;0.33;;;;;7.18;73.36;101525.28;5022724;28;45257;-78
2022/01/31 07:40:09;;;;;;;;;2.00;2.00;;;;;7.24;73.12;101534.50;5006839;28;47201;-78
2022/01/31 07:42:35;;;;;;;;;3.00;3.00;;;;;7.12;72.92;101516.06;5024617;28;46384;-80
2022/01/31 07:45:00;;;;;;;;;3.00;1.00;;;;;7.26;72.92;101537.84;5027890;28;45448;-79
2022/01/31 07:47:25;;;;;;;;;2.00;2.00;;;;;7.25;73.34;101537.03;5030461;28;45285;-79
2022/01/31 07:49:51;;;;;;;;;2.00;2.00;;;;;7.21;73.32;101540.88;5027580;28;45369;-79
2022/01/31 07:52:17;;;;;;;;;4.00;2.67;;;;;7.28;73.28;101559.72;5026878;28;45348;-79
2022/01/31 07:54:46;;;;;;;;;3.67;3.67;;;;;7.34;73.08;101564.47;5003973;28;45410;-79
2022/01/31 07:57:11;;;;;;;;;3.00;3.00;;;;;7.38;73.57;101565.88;5006602;28;45246;-80
2022/01/31 07:59:36;;;;;;;;;3.00;3.00;;;;;7.27;73.55;101548.28;5025358;28;45217;-80
2022/01/31 08:02:03;;;;;;;;;1.67;1.67;;;;;7.12;73.45;101529.28;5004780;28;47449;-81
2022/01/31 08:04:28;;;;;;;;;4.00;2.00;;;;;7.36;73.38;101583.69;5019652;28;45265;-78
2022/01/31 08:06:53;;;;;;;;;2.00;2.00;;;;;7.23;73.52;101575.13;5021832;28;45913;-80
2022/01/31 08:09:19;;;;;;;;;3.33;2.67;;;;;7.33;73.39;101602.44;5021729;28;45354;-80
2022/01/31 08:11:44;;;;;;;;;3.00;2.67;;;;;7.44;73.90;101598.88;5002414;28;47957;-79
2022/01/31 08:14:11;;;;;;;;;4.33;2.67;;;;;7.42;73.61;101591.09;5022741;28;45325;-79
2022/01/31 08:16:38;;;;;;;;;2.00;2.00;;;;;7.50;73.26;101590.44;5021795;28;45393;-79
2022/01/31 08:19:06;;;;;;;;;4.00;3.00;;;;;7.53;73.20;101594.59;5003388;28;45472;-78
2022/01/31 08:21:32;;;;;;;;;1.00;1.00;;;;;7.57;73.53;101599.50;5000236;28;47303;-79
2022/01/31 08:23:58;;;;;;;;;1.67;1.67;;;;;7.51;73.03;101584.16;5001671;28;45166;-79
2022/01/31 08:26:23;;;;;;;;;1.33;1.33;;;;;7.57;73.36;101598.66;5001976;28;46105;-80
2022/01/31 08:29:37;;;;;;;;;4.00;4.00;;;;;7.67;73.24;101611.94;5001678;28;45416;-79
2022/01/31 08:31:37;;;;;;;;;2.00;2.00;;;;;7.67;73.02;101591.59;4994068;28;45786;-79
2022/01/31 08:34:17;;;;;;;;;2.67;2.67;;;;;7.76;72.77;101592.63;4983479;28;45453;-81
2022/01/31 08:36:43;;;;;;;;;6.67;2.67;;;;;7.75;73.25;101577.69;5001789;28;45231;-79
2022/01/31 08:39:18;;;;;;;;;2.33;2.33;;;;;7.82;73.28;101585.94;4975410;28;47445;-78
2022/01/31 08:41:47;;;;;;;;;5.00;4.00;;;;;8.00;72.60;101594.06;4991593;28;46078;-78
2022/01/31 08:44:17;;;;;;;;;3.67;2.67;;;;;7.90;72.37;101575.50;4996438;28;45475;-79
2022/01/31 08:46:43;;;;;;;;;4.00;2.00;;;;;8.02;72.62;101615.13;5001157;28;45298;-77
2022/01/31 08:49:10;;;;;;;;;3.00;3.00;;;;;8.00;72.53;101599.38;4999475;28;45218;-78
2022/01/31 08:51:37;;;;;;;;;6.00;6.00;;;;;8.03;72.87;101614.13;5000589;28;45388;-77
2022/01/31 08:54:06;;;;;;;;;4.00;2.33;;;;;8.16;72.00;101641.19;4999314;28;45491;-79
2022/01/31 08:56:35;;;;;;;;;2.33;2.33;;;;;8.06;71.66;101606.75;4988753;28;45388;-79
2022/01/31 08:59:02;;;;;;;;;4.00;2.00;;;;;8.17;71.29;101619.03;4997472;28;45543;-77
2022/01/31 09:01:28;;;;;;;;;1.67;1.67;;;;;8.13;71.77;101593.81;5000693;28;46153;-78
2022/01/31 09:06:25;;;;;;;;;4.00;2.00;;;;;8.27;70.28;101591.72;4994999;28;45452;-78
2022/01/31 09:08:51;;;;;;;;;8.00;2.67;;;;;8.25;70.69;101591.03;4998977;28;45591;-77
2022/01/31 09:11:17;;;;;;;;;4.00;2.67;;;;;8.20;70.49;101591.44;4998504;28;46023;-76
2022/01/31 09:13:42;;;;;;;;;1.67;0.00;;;;;8.16;70.97;101587.41;4997708;28;45318;-77
2022/01/31 09:16:08;;;;;;;;;4.00;4.00;;;;;8.27;70.14;101575.84;4983118;28;45401;-78
2022/01/31 09:18:34;;;;;;;;;2.33;2.33;;;;;8.24;70.53;101576.13;4996250;28;45385;-78
2022/01/31 09:21:00;;;;;;;;;3.67;3.00;;;;;8.30;70.22;101597.59;4991539;28;47740;-77
2022/01/31 09:23:27;;;;;;;;;4.00;3.00;;;;;8.19;69.91;101577.38;4988746;28;45455;-77
2022/01/31 09:25:54;;;;;;;;;3.00;3.00;;;;;8.17;70.25;101574.00;4998346;28;45733;-77
2022/01/31 09:28:28;;;;;;;;;5.33;3.67;;;;;8.17;69.67;101594.38;5113828;27;45356;-75
2022/01/31 09:30:54;;;;;;;;;6.33;5.00;;;;;8.22;70.33;101592.16;5094932;27;45346;-74
2022/01/31 09:33:20;;;;;;;;;6.00;3.00;;;;;8.29;70.08;101587.16;5096394;27;45422;-76
2022/01/31 09:35:47;;;;;;;;;3.00;2.00;;;;;8.30;70.07;101580.88;5094668;27;46355;-76
2022/01/31 09:38:14;;;;;;;;;4.33;2.67;;;;;8.41;69.60;101593.16;5095421;27;45437;-76
2022/01/31 09:40:41;;;;;;;;;5.00;2.00;;;;;8.36;69.79;101576.81;5096339;27;45295;-78
2022/01/31 09:48:38;;;;;;;;;2.33;2.33;;;;;8.55;67.80;101598.06;5095799;27;45892;-77
2022/01/31 09:51:06;;;;;;;;;11.00;10.00;;;;;8.67;68.13;101604.06;5118194;27;45547;-77
2022/01/31 09:53:35;;;;;;;;;4.00;4.00;;;;;8.62;67.98;101593.00;5095795;27;45456;-77
2022/01/31 09:56:01;;;;;;;;;3.00;1.67;;;;;8.56;68.05;101581.16;5093158;27;45460;-75
2022/01/31 09:58:29;;;;;;;;;4.33;2.00;;;;;8.62;67.28;101624.00;5095783;27;46006;-78
2022/01/31 10:01:10;;;;;;;;;4.00;3.00;;;;;8.61;66.80;101625.81;5095900;27;45288;-79
2022/01/31 10:04:02;;;;;;;;;5.00;3.67;;;;;8.55;66.55;101635.16;5090621;27;45389;-81
2022/01/31 10:06:32;;;;;;;;;7.67;5.00;;;;;8.64;67.08;101644.09;5089016;27;46967;-79
2022/01/31 10:09:19;;;;;;;;;4.00;3.00;;;;;8.68;66.63;101629.56;5095640;27;45369;-79
2022/01/31 10:11:51;;;;;;;;;3.00;3.00;;;;;8.59;66.81;101623.28;5095204;27;45173;-82
2022/01/31 10:17:37;;;;;;;;;6.67;5.00;;;;;8.76;67.05;101642.13;5093584;27;45407;-79
2022/01/31 10:20:06;;;;;;;;;5.00;3.00;;;;;8.78;66.47;101639.34;5088130;27;45333;-80
2022/01/31 10:22:34;;;;;;;;;6.00;2.00;;;;;8.74;65.86;101644.06;5086870;27;45362;-82
2022/01/31 10:25:02;;;;;;;;;6.33;3.00;;;;;8.73;66.69;101646.84;5096274;27;45316;-78
2022/01/31 10:27:34;;;;;;;;;5.67;5.00;;;;;8.81;66.09;101670.88;5094161;27;47152;-80
2022/01/31 10:30:10;;;;;;;;;3.67;3.67;;;;;8.88;65.25;101664.03;5096283;27;45288;-81
2022/01/31 10:32:39;;;;;;;;;4.33;2.00;;;;;8.89;65.10;101663.03;5096327;27;45266;-80
2022/01/31 10:35:11;;;;;;;;;2.33;2.33;;;;;8.81;64.49;101633.75;5097993;27;45326;-83
2022/01/31 10:37:40;;;;;;;;;4.00;3.00;;;;;9.03;63.74;101658.28;5095040;27;45248;-81
2022/01/31 10:46:06;;;;;;;;;2.33;2.33;;;;;9.17;63.07;101667.63;5079795;28;45374;-81
2022/01/31 10:54:26;;;;;;;;;4.33;2.67;;;;;9.05;61.87;101686.34;5081190;27;45251;-81
2022/01/31 10:57:01;;;;;;;;;2.00;2.00;;;;;8.89;60.45;101663.03;5080095;28;45464;-82
2022/01/31 10:59:35;;;;;;;;;3.33;3.33;;;;;9.06;60.16;101676.56;5093299;27;46879;-82
2022/01/31 11:02:04;;;;;;;;;1.67;1.67;;;;;8.95;60.37;101661.66;5083608;27;45340;-82
2022/01/31 11:04:38;;;;;;;;;3.00;3.00;;;;;9.08;60.04;101674.63;5080778;27;45366;-84
2022/01/31 11:07:10;;;;;;;;;1.00;1.00;;;;;9.27;60.88;101675.56;5078876;27;45437;-82
2022/01/31 11:09:36;;;;;;;;;2.00;2.00;;;;;9.16;56.26;101636.78;5081295;28;45508;-80
2022/01/31 11:12:04;;;;;;;;;5.33;4.33;;;;;9.37;55.46;101660.44;5078598;28;47340;-82
2022/01/31 11:14:29;;;;;;;;;1.00;1.00;;;;;9.36;58.41;101657.97;5065989;28;45412;-82
2022/01/31 11:16:55;;;;;;;;;3.00;0.67;;;;;9.21;57.81;101645.13;5081306;27;45315;-79
2022/01/31 11:19:31;;;;;;;;;3.00;3.00;;;;;9.23;58.17;101664.41;5084390;27;45471;-83
2022/01/31 11:22:01;;;;;;;;;2.33;1.00;;;;;9.30;58.03;101701.81;5080237;28;46115;-80
2022/01/31 11:24:31;;;;;;;;;1.67;1.00;;;;;9.17;58.53;101687.03;5082369;27;45231;-82
2022/01/31 11:27:15;;;;;;;;;2.00;2.00;;;;;9.10;58.13;101693.91;5082281;27;45294;-82
2022/01/31 11:29:45;;;;;;;;;2.67;1.00;;;;;8.98;57.36;101679.09;5081741;27;45433;-80
2022/01/31 11:32:12;;;;;;;;;1.00;1.00;;;;;9.12;57.12;101689.28;5081431;27;46043;-83
2022/01/31 11:34:39;;;;;;;;;2.00;0.00;;;;;9.22;56.87;101665.41;5082176;27;45274;-81
2022/01/31 11:37:08;;;;;;;;;0.67;0.67;;;;;9.24;53.85;101695.25;5078971;27;45490;-80
2022/01/31 11:39:35;;;;;;;;;1.00;1.00;;;;;9.13;54.25;101667.06;5081441;28;45622;-81
2022/01/31 11:42:02;;;;;;;;;0.00;0.00;;;;;9.31;55.63;101677.78;5076303;27;48251;-81
2022/01/31 11:44:35;;;;;;;;;1.33;1.00;;;;;9.38;55.33;101669.25;5080826;27;46299;-79
2022/01/31 11:47:07;;;;;;;;;0.00;0.00;;;;;9.38;55.31;101685.19;5077267;28;45289;-81
2022/01/31 11:49:47;;;;;;;;;2.00;1.00;;;;;9.22;54.62;101663.56;5074997;28;45421;-78
2022/01/31 11:52:13;;;;;;;;;0.00;0.00;;;;;9.30;53.91;101697.34;5078936;27;47659;-80
2022/01/31 11:54:46;;;;;;;;;0.00;0.00;;;;;9.28;55.35;101698.47;5079508;28;45600;-82
2022/01/31 11:57:27;;;;;;;;;1.00;1.00;;;;;9.08;54.53;101693.19;5062091;28;45218;-83